createdAt,value
2018-09-25T00:00:34.518Z,7.50
2018-09-25T00:03:07.969Z,7.40
2018-09-25T00:05:41.596Z,7.30
2018-09-25T00:08:15.266Z,7.20
2018-09-25T00:10:48.822Z,7.10
2018-09-25T00:13:22.425Z,7.00
2018-09-25T00:15:55.814Z,6.90
2018-09-25T00:18:29.585Z,6.90
2018-09-25T00:21:03.086Z,6.90
2018-09-25T00:23:36.825Z,6.80
2018-09-25T00:26:10.518Z,6.80
2018-09-25T00:28:44.239Z,6.70
2018-09-25T00:31:17.847Z,6.70
2018-09-25T00:33:51.439Z,6.60
2018-09-25T00:36:24.980Z,6.60
2018-09-25T00:38:58.714Z,6.60
2018-09-25T00:41:32.413Z,6.60
2018-09-25T00:44:06.090Z,6.60
2018-09-25T00:46:39.766Z,6.70
2018-09-25T00:49:13.438Z,6.80
2018-09-25T00:51:46.968Z,6.80
2018-09-25T00:54:20.637Z,6.70
2018-09-25T00:56:54.226Z,6.70
2018-09-25T00:59:27.954Z,6.80
2018-09-25T01:02:01.606Z,6.70
2018-09-25T01:04:35.258Z,6.60
2018-09-25T01:07:08.821Z,6.50
2018-09-25T01:09:42.441Z,6.50
2018-09-25T01:12:16.089Z,6.40
2018-09-25T01:14:49.734Z,6.40
2018-09-25T01:17:23.348Z,6.30
2018-09-25T01:19:57.050Z,6.20
2018-09-25T01:22:30.780Z,6.20
2018-09-25T01:25:04.402Z,6.10
2018-09-25T01:27:38.078Z,6.00
2018-09-25T01:30:11.790Z,6.00
2018-09-25T01:32:45.361Z,6.00
2018-09-25T01:35:19.078Z,6.10
2018-09-25T01:37:52.681Z,6.10
2018-09-25T01:40:26.235Z,6.10
2018-09-25T01:42:59.956Z,6.10
2018-09-25T01:45:33.696Z,5.90
2018-09-25T01:48:07.389Z,5.80
2018-09-25T01:50:41.102Z,5.90
2018-09-25T01:53:14.785Z,6.00
2018-09-25T01:55:48.404Z,6.00
2018-09-25T01:58:22.032Z,5.90
2018-09-25T02:00:55.802Z,5.90
2018-09-25T02:03:29.466Z,6.00
2018-09-25T02:06:03.238Z,6.10
2018-09-25T02:08:36.875Z,6.00
2018-09-25T02:11:10.567Z,6.10
2018-09-25T02:13:44.155Z,6.10
2018-09-25T02:16:17.793Z,6.10
2018-09-25T02:18:51.457Z,6.10
2018-09-25T02:21:25.083Z,6.10
2018-09-25T02:23:58.802Z,5.90
2018-09-25T02:26:32.461Z,5.80
2018-09-25T02:29:06.165Z,5.80
2018-09-25T02:31:39.862Z,5.80
2018-09-25T02:34:13.562Z,5.80
2018-09-25T02:36:47.234Z,5.90
2018-09-25T02:39:20.882Z,6.00
2018-09-25T02:41:54.454Z,5.90
2018-09-25T02:44:27.790Z,5.90
2018-09-25T02:47:01.435Z,5.90
2018-09-25T02:49:35.060Z,5.90
2018-09-25T02:52:08.627Z,5.80
2018-09-25T02:54:42.279Z,5.80
2018-09-25T02:57:15.986Z,5.80
2018-09-25T02:59:49.654Z,5.80
2018-09-25T03:02:23.043Z,5.80
2018-09-25T03:04:56.547Z,5.80
2018-09-25T03:07:30.254Z,5.70
2018-09-25T03:10:03.973Z,5.70
2018-09-25T03:12:37.534Z,5.70
2018-09-25T03:15:11.088Z,5.70
2018-09-25T03:17:44.695Z,5.70
2018-09-25T03:20:18.358Z,5.60
2018-09-25T03:22:52.024Z,5.50
2018-09-25T03:25:25.436Z,5.50
2018-09-25T03:27:59.070Z,5.30
2018-09-25T03:30:32.674Z,5.30
2018-09-25T03:33:06.311Z,5.40
2018-09-25T03:35:39.981Z,5.40
2018-09-25T03:38:13.681Z,5.40
2018-09-25T03:40:47.390Z,5.10
2018-09-25T03:43:20.898Z,5.10
2018-09-25T03:45:54.482Z,5.10
2018-09-25T03:48:28.204Z,5.20
2018-09-25T03:51:01.777Z,5.30
2018-09-25T03:53:35.406Z,5.30
2018-09-25T03:56:08.865Z,5.20
2018-09-25T03:58:42.410Z,5.10
2018-09-25T04:01:15.801Z,5.10
2018-09-25T04:03:49.393Z,5.20
2018-09-25T04:06:23.063Z,5.40
2018-09-25T04:08:56.482Z,5.40
2018-09-25T04:11:30.188Z,5.30
2018-09-25T04:14:03.811Z,5.20
2018-09-25T04:16:37.478Z,5.10
2018-09-25T04:19:11.138Z,5.10
2018-09-25T04:21:44.798Z,5.10
2018-09-25T04:24:18.365Z,5.10
2018-09-25T04:26:51.911Z,5.10
2018-09-25T04:29:25.569Z,4.80
2018-09-25T04:31:59.299Z,4.80
2018-09-25T04:34:32.970Z,4.80
2018-09-25T04:37:06.688Z,4.80
2018-09-25T04:39:40.324Z,4.90
2018-09-25T04:42:13.770Z,5.00
2018-09-25T04:44:47.202Z,5.00
2018-09-25T04:47:20.928Z,5.10
2018-09-25T04:49:54.447Z,5.10
2018-09-25T04:52:28.075Z,5.20
2018-09-25T04:55:01.526Z,5.20
2018-09-25T04:57:34.895Z,5.20
2018-09-25T05:00:08.625Z,5.10
2018-09-25T05:02:42.226Z,5.10
2018-09-25T05:05:15.906Z,5.10
2018-09-25T05:07:49.578Z,5.10
2018-09-25T05:10:23.214Z,5.10
2018-09-25T05:12:56.797Z,5.00
2018-09-25T05:15:30.318Z,5.00
2018-09-25T05:18:04.013Z,4.90
2018-09-25T05:20:37.354Z,4.90
2018-09-25T05:23:11.058Z,4.80
2018-09-25T05:25:44.683Z,4.80
2018-09-25T05:28:22.514Z,4.90
2018-09-25T05:30:56.166Z,4.90
2018-09-25T05:33:29.926Z,4.90
2018-09-25T05:36:03.514Z,5.00
2018-09-25T05:38:37.117Z,5.20
2018-09-25T05:41:10.602Z,5.20
2018-09-25T05:43:44.124Z,5.30
2018-09-25T05:46:17.819Z,5.40
2018-09-25T05:48:51.620Z,5.40
2018-09-25T05:51:25.178Z,5.40
2018-09-25T05:53:58.830Z,5.40
2018-09-25T05:56:32.751Z,5.50
2018-09-25T05:59:06.414Z,5.80
2018-09-25T06:01:40.019Z,6.00
2018-09-25T06:04:13.597Z,6.40
2018-09-25T06:06:47.163Z,6.80
2018-09-25T06:09:20.660Z,7.20
2018-09-25T06:11:54.303Z,7.60
2018-09-25T06:14:27.960Z,8.00
2018-09-25T06:17:01.492Z,8.40
2018-09-25T06:19:34.920Z,8.70
2018-09-25T06:22:08.325Z,9.10
2018-09-25T06:24:42.021Z,9.50
2018-09-25T06:27:15.672Z,9.60
2018-09-25T06:29:49.334Z,10.10
2018-09-25T06:32:22.982Z,10.30
2018-09-25T06:34:56.440Z,10.70
2018-09-25T06:37:30.024Z,10.90
2018-09-25T06:40:03.751Z,11.00
2018-09-25T06:42:37.378Z,10.90
2018-09-25T06:45:10.946Z,11.10
2018-09-25T06:47:44.506Z,11.10
2018-09-25T06:50:17.949Z,10.50
2018-09-25T06:52:51.561Z,11.00
2018-09-25T06:55:25.250Z,11.30
2018-09-25T06:57:58.801Z,11.60
2018-09-25T07:00:32.205Z,12.00
2018-09-25T07:03:05.858Z,12.20
2018-09-25T07:05:39.620Z,12.20
2018-09-25T07:08:13.385Z,12.40
2018-09-25T07:10:47.075Z,12.60
2018-09-25T07:13:20.789Z,12.70
2018-09-25T07:15:54.378Z,12.90
2018-09-25T07:18:27.995Z,12.90
2018-09-25T07:21:01.394Z,13.00
2018-09-25T07:23:34.766Z,12.90
2018-09-25T07:26:08.493Z,13.10
2018-09-25T07:28:42.189Z,13.30
2018-09-25T07:31:15.873Z,13.50
2018-09-25T07:33:49.549Z,13.70
2018-09-25T07:36:23.191Z,13.80
2018-09-25T07:38:56.878Z,14.00
2018-09-25T07:41:30.526Z,14.30
2018-09-25T07:44:04.094Z,14.40
2018-09-25T07:46:37.783Z,14.60
2018-09-25T07:49:11.546Z,14.70
2018-09-25T07:51:45.193Z,14.70
2018-09-25T07:54:18.693Z,14.50
2018-09-25T07:56:52.348Z,14.50
2018-09-25T07:59:25.862Z,14.60
2018-09-25T08:01:59.225Z,14.90
2018-09-25T08:04:32.666Z,15.30
2018-09-25T08:07:06.293Z,15.50
2018-09-25T08:09:39.722Z,15.50
2018-09-25T08:12:13.368Z,15.40
2018-09-25T08:14:46.788Z,15.70
2018-09-25T08:17:20.278Z,15.70
2018-09-25T08:19:53.894Z,15.60
2018-09-25T08:22:27.578Z,15.60
2018-09-25T08:25:01.102Z,15.80
2018-09-25T08:27:34.798Z,15.70
2018-09-25T08:30:08.391Z,15.80
2018-09-25T08:32:41.999Z,16.10
2018-09-25T08:35:15.700Z,16.40
2018-09-25T08:37:49.397Z,16.50
2018-09-25T08:40:22.984Z,16.50
2018-09-25T08:42:56.598Z,16.60
2018-09-25T08:45:30.316Z,16.80
2018-09-25T08:48:04.031Z,16.90
2018-09-25T08:50:37.426Z,16.90
2018-09-25T08:53:11.079Z,17.00
2018-09-25T08:55:44.694Z,17.20
2018-09-25T08:58:18.406Z,17.10
2018-09-25T09:00:52.168Z,17.20
2018-09-25T09:03:25.743Z,17.40
2018-09-25T09:05:59.563Z,17.60
2018-09-25T09:08:33.075Z,18.20
2018-09-25T09:11:06.759Z,18.40
2018-09-25T09:13:40.466Z,18.70
2018-09-25T09:16:14.086Z,18.80
2018-09-25T09:18:47.690Z,19.00
2018-09-25T09:21:21.258Z,18.80
2018-09-25T09:23:54.921Z,18.90
2018-09-25T09:26:28.413Z,19.20
2018-09-25T09:29:02.046Z,19.30
2018-09-25T09:31:35.630Z,19.30
2018-09-25T09:34:09.278Z,19.20
2018-09-25T09:36:42.951Z,19.20
2018-09-25T09:39:16.449Z,19.40
2018-09-25T09:41:50.195Z,19.30
2018-09-25T09:44:23.654Z,19.60
2018-09-25T09:46:57.177Z,19.90
2018-09-25T09:49:30.890Z,20.00
2018-09-25T09:52:04.417Z,20.10
2018-09-25T09:54:37.950Z,20.00
2018-09-25T09:57:11.532Z,19.80
2018-09-25T09:59:45.251Z,19.70
2018-09-25T10:02:18.955Z,19.70
2018-09-25T10:04:52.630Z,19.60
2018-09-25T10:07:26.384Z,19.80
2018-09-25T10:10:00.077Z,20.00
2018-09-25T10:12:33.807Z,20.10
2018-09-25T10:15:07.395Z,20.20
2018-09-25T10:17:41.042Z,20.10
2018-09-25T10:20:14.717Z,19.80
2018-09-25T10:22:48.376Z,19.70
2018-09-25T10:25:21.993Z,19.60
2018-09-25T10:27:55.519Z,19.40
2018-09-25T10:30:29.209Z,19.60
2018-09-25T10:33:02.791Z,19.90
2018-09-25T10:35:36.422Z,19.90
2018-09-25T10:38:10.049Z,19.80
2018-09-25T10:40:43.706Z,19.80
2018-09-25T10:43:17.405Z,19.90
2018-09-25T10:45:51.038Z,19.70
2018-09-25T10:48:24.610Z,19.60
2018-09-25T10:50:58.329Z,19.20
2018-09-25T10:53:31.965Z,19.50
2018-09-25T10:56:05.703Z,19.20
2018-09-25T10:58:39.223Z,19.40
2018-09-25T11:01:13.054Z,19.80
2018-09-25T11:03:46.722Z,20.20
2018-09-25T11:06:20.149Z,20.70
2018-09-25T11:08:53.849Z,20.80
2018-09-25T11:11:27.664Z,20.90
2018-09-25T11:14:01.143Z,21.00
2018-09-25T11:16:34.833Z,20.80
2018-09-25T11:19:08.461Z,20.80
2018-09-25T11:21:42.084Z,21.00
2018-09-25T11:24:15.670Z,21.00
2018-09-25T11:26:49.347Z,21.10
2018-09-25T11:29:23.043Z,20.70
2018-09-25T11:31:56.754Z,20.80
2018-09-25T11:34:30.301Z,20.60
2018-09-25T11:37:03.948Z,20.50
2018-09-25T11:39:37.647Z,20.60
2018-09-25T11:42:11.328Z,21.00
2018-09-25T11:44:44.974Z,20.90
2018-09-25T11:47:18.662Z,21.00
2018-09-25T11:49:52.383Z,20.90
2018-09-25T11:52:25.998Z,20.60
2018-09-25T11:54:59.501Z,20.40
2018-09-25T11:57:33.194Z,20.60
2018-09-25T12:00:06.853Z,21.00
2018-09-25T12:02:40.498Z,20.90
2018-09-25T12:05:14.085Z,20.90
2018-09-25T12:07:47.649Z,20.80
2018-09-25T12:10:21.259Z,20.80
2018-09-25T12:12:54.934Z,20.80
2018-09-25T12:15:28.502Z,20.70
2018-09-25T12:18:02.177Z,20.80
2018-09-25T12:20:35.801Z,20.70
2018-09-25T12:23:09.402Z,20.70
2018-09-25T12:25:43.197Z,21.00
2018-09-25T12:28:16.802Z,21.10
2018-09-25T12:30:50.600Z,20.90
2018-09-25T12:33:24.269Z,20.80
2018-09-25T12:35:57.870Z,21.20
2018-09-25T12:38:31.678Z,20.90
2018-09-25T12:41:05.366Z,20.80
2018-09-25T12:43:39.019Z,20.80
2018-09-25T12:46:12.795Z,21.00
2018-09-25T12:48:46.389Z,21.10
2018-09-25T12:51:20.136Z,20.90
2018-09-25T12:53:53.889Z,21.10
2018-09-25T12:56:27.450Z,21.40
2018-09-25T12:59:01.272Z,21.50
2018-09-25T13:01:35.011Z,21.40
2018-09-25T13:04:08.619Z,21.50
2018-09-25T13:06:42.287Z,21.40
2018-09-25T13:09:15.910Z,21.40
2018-09-25T13:11:49.898Z,21.10
2018-09-25T13:14:27.236Z,21.20
2018-09-25T13:17:00.981Z,21.30
2018-09-25T13:19:34.570Z,21.00
2018-09-25T13:22:08.431Z,20.90
2018-09-25T13:24:41.996Z,21.00
2018-09-25T13:27:15.729Z,21.20
2018-09-25T13:29:49.283Z,20.90
2018-09-25T13:32:23.055Z,21.00
2018-09-25T13:34:56.490Z,20.70
2018-09-25T13:37:30.090Z,20.70
2018-09-25T13:40:03.812Z,20.30
2018-09-25T13:42:37.454Z,19.90
2018-09-25T13:45:12.528Z,19.70
2018-09-25T13:47:46.136Z,19.50
2018-09-25T13:50:19.866Z,19.50
2018-09-25T13:52:53.916Z,19.70
2018-09-25T13:55:27.630Z,19.70
2018-09-25T13:58:01.210Z,19.70
2018-09-25T14:00:34.883Z,19.00
2018-09-25T14:03:08.502Z,19.10
2018-09-25T14:05:42.110Z,19.20
2018-09-25T14:08:15.755Z,19.30
2018-09-25T14:10:49.494Z,19.20
2018-09-25T14:13:23.026Z,19.10
2018-09-25T14:15:56.660Z,18.90
2018-09-25T14:18:30.136Z,19.10
2018-09-25T14:21:03.822Z,19.30
2018-09-25T14:23:37.522Z,19.30
2018-09-25T14:26:11.242Z,19.30
2018-09-25T14:28:44.908Z,19.10
2018-09-25T14:31:18.646Z,19.10
2018-09-25T14:33:52.362Z,19.00
2018-09-25T14:36:25.921Z,19.00
2018-09-25T14:38:59.401Z,19.10
2018-09-25T14:41:32.895Z,19.00
2018-09-25T14:44:06.496Z,18.50
2018-09-25T14:46:40.212Z,18.30
2018-09-25T14:49:13.886Z,18.30
2018-09-25T14:51:47.464Z,18.10
2018-09-25T14:54:21.077Z,18.00
2018-09-25T14:56:54.674Z,17.90
2018-09-25T14:59:28.134Z,17.90
2018-09-25T15:02:01.902Z,17.90
2018-09-25T15:04:35.476Z,17.90
2018-09-25T15:07:09.181Z,17.80
2018-09-25T15:09:42.842Z,17.60
2018-09-25T15:12:16.494Z,17.50
2018-09-25T15:14:49.880Z,17.70
2018-09-25T15:17:23.589Z,17.60
2018-09-25T15:19:57.229Z,17.40
2018-09-25T15:22:30.870Z,17.30
2018-09-25T15:25:04.490Z,17.20
2018-09-25T15:27:38.197Z,17.00
2018-09-25T15:30:11.801Z,16.90
2018-09-25T15:32:45.454Z,16.80
2018-09-25T15:35:19.112Z,16.60
2018-09-25T15:37:52.734Z,16.60
2018-09-25T15:40:26.472Z,16.50
2018-09-25T15:43:00.061Z,16.50
2018-09-25T15:45:33.754Z,16.40
2018-09-25T15:48:07.544Z,16.40
2018-09-25T15:50:41.133Z,16.30
2018-09-25T15:53:14.693Z,16.30
2018-09-25T15:55:48.354Z,16.30
2018-09-25T15:58:21.934Z,16.10
2018-09-25T16:00:55.473Z,16.00
2018-09-25T16:03:29.135Z,16.00
2018-09-25T16:06:02.854Z,15.80
2018-09-25T16:08:36.402Z,15.80
2018-09-25T16:11:10.064Z,15.60
2018-09-25T16:13:43.770Z,15.60
2018-09-25T16:16:17.449Z,15.50
2018-09-25T16:18:51.153Z,15.40
2018-09-25T16:21:24.569Z,15.40
2018-09-25T16:23:57.959Z,15.30
2018-09-25T16:26:31.675Z,15.30
2018-09-25T16:29:05.239Z,15.10
2018-09-25T16:31:38.953Z,15.00
2018-09-25T16:34:12.595Z,14.90
2018-09-25T16:36:46.102Z,14.90
2018-09-25T16:39:19.829Z,14.90
2018-09-25T16:41:53.513Z,14.80
2018-09-25T16:44:26.971Z,14.60
2018-09-25T16:47:00.545Z,14.50
2018-09-25T16:49:34.216Z,14.40
2018-09-25T16:52:07.881Z,14.30
2018-09-25T16:54:41.373Z,14.20
2018-09-25T16:57:15.113Z,14.10
2018-09-25T16:59:48.676Z,14.10
2018-09-25T17:02:22.172Z,14.00
2018-09-25T17:04:55.816Z,13.90
2018-09-25T17:07:36.535Z,13.80
2018-09-25T17:10:10.251Z,13.70
2018-09-25T17:12:43.952Z,13.60
2018-09-25T17:15:17.649Z,13.60
2018-09-25T17:17:51.323Z,13.60
2018-09-25T17:20:25.040Z,13.50
2018-09-25T17:22:58.722Z,13.40
2018-09-25T17:25:32.311Z,13.40
2018-09-25T17:28:05.979Z,13.30
2018-09-25T17:30:39.531Z,13.20
2018-09-25T17:33:13.264Z,13.20
2018-09-25T17:35:46.822Z,13.10
2018-09-25T17:38:20.266Z,13.10
2018-09-25T17:40:53.945Z,13.00
2018-09-25T17:43:27.601Z,13.00
2018-09-25T17:46:01.319Z,12.90
2018-09-25T17:48:34.930Z,12.90
2018-09-25T17:51:08.424Z,12.80
2018-09-25T17:53:42.102Z,12.80
2018-09-25T17:56:15.753Z,12.80
2018-09-25T17:58:49.418Z,12.70
2018-09-25T18:01:23.128Z,12.60
2018-09-25T18:03:56.908Z,12.40
2018-09-25T18:06:30.438Z,12.40
2018-09-25T18:09:04.210Z,12.30
2018-09-25T18:11:37.706Z,12.20
2018-09-25T18:14:11.210Z,12.20
2018-09-25T18:16:44.628Z,12.10
2018-09-25T18:19:18.038Z,12.10
2018-09-25T18:21:51.417Z,12.10
2018-09-25T18:24:24.815Z,12.00
2018-09-25T18:26:58.453Z,11.90
2018-09-25T18:29:32.108Z,11.80
2018-09-25T18:32:05.448Z,11.70
2018-09-25T18:34:39.244Z,11.60
2018-09-25T18:37:12.880Z,11.50
2018-09-25T18:39:46.556Z,11.50
2018-09-25T18:42:20.242Z,11.40
2018-09-25T18:44:53.871Z,11.30
2018-09-25T18:47:27.499Z,11.30
2018-09-25T18:50:01.104Z,11.20
2018-09-25T18:52:34.718Z,11.20
2018-09-25T18:55:08.396Z,11.10
2018-09-25T18:57:42.103Z,11.00
2018-09-25T19:00:15.701Z,10.90
2018-09-25T19:02:49.227Z,10.80
2018-09-25T19:05:22.763Z,10.80
2018-09-25T19:07:56.350Z,10.80
2018-09-25T19:10:29.817Z,10.70
2018-09-25T19:13:03.461Z,10.60
2018-09-25T19:15:37.115Z,10.50
2018-09-25T19:18:10.745Z,10.40
2018-09-25T19:20:44.404Z,10.40
2018-09-25T19:23:18.137Z,10.40
2018-09-25T19:25:51.648Z,10.30
2018-09-25T19:28:25.323Z,10.30
2018-09-25T19:30:58.766Z,10.20
2018-09-25T19:33:32.962Z,10.10
2018-09-25T19:36:06.661Z,10.10
2018-09-25T19:38:40.382Z,10.00
2018-09-25T19:41:14.172Z,10.00
2018-09-25T19:43:47.900Z,9.90
2018-09-25T19:46:21.585Z,9.80
2018-09-25T19:48:55.273Z,9.80
2018-09-25T19:51:28.814Z,9.70
2018-09-25T19:54:02.394Z,9.70
2018-09-25T19:56:36.040Z,9.70
2018-09-25T19:59:09.666Z,9.60
2018-09-25T20:01:43.342Z,9.60
2018-09-25T20:04:17.094Z,9.50
2018-09-25T20:06:50.501Z,9.50
2018-09-25T20:09:24.214Z,9.40
2018-09-25T20:11:57.951Z,9.30
2018-09-25T20:14:31.665Z,9.20
2018-09-25T20:17:05.134Z,9.20
2018-09-25T20:19:38.730Z,9.20
2018-09-25T20:22:12.678Z,9.20
2018-09-25T20:24:46.366Z,9.10
2018-09-25T20:27:20.111Z,9.10
2018-09-25T20:29:53.989Z,9.10
2018-09-25T20:32:27.722Z,9.10
2018-09-25T20:35:01.435Z,9.00
2018-09-25T20:37:34.913Z,8.90
2018-09-25T20:40:08.625Z,8.80
2018-09-25T20:42:42.295Z,8.70
2018-09-25T20:45:15.908Z,8.60
2018-09-25T20:47:49.529Z,8.60
2018-09-25T20:50:23.215Z,8.50
2018-09-25T20:52:56.867Z,8.50
2018-09-25T20:55:30.601Z,8.50
2018-09-25T20:58:04.223Z,8.50
2018-09-25T21:00:37.832Z,8.40
2018-09-25T21:03:11.549Z,8.40
2018-09-25T21:05:44.926Z,8.40
2018-09-25T21:08:18.507Z,8.40
2018-09-25T21:10:52.155Z,8.40
2018-09-25T21:13:25.743Z,8.30
2018-09-25T21:15:59.373Z,8.30
2018-09-25T21:18:32.961Z,8.20
2018-09-25T21:21:06.639Z,8.20
2018-09-25T21:23:40.249Z,8.10
2018-09-25T21:26:13.875Z,8.10
2018-09-25T21:28:48.396Z,8.10
2018-09-25T21:31:21.894Z,8.00
2018-09-25T21:33:55.492Z,8.00
2018-09-25T21:36:28.993Z,8.00
2018-09-25T21:39:02.607Z,7.90
2018-09-25T21:41:35.953Z,7.90
2018-09-25T21:44:09.303Z,7.90
2018-09-25T21:46:42.890Z,7.90
2018-09-25T21:49:16.498Z,7.80
2018-09-25T21:51:50.279Z,7.80
2018-09-25T21:54:23.818Z,7.80
2018-09-25T21:56:57.390Z,7.70
2018-09-25T21:59:30.851Z,7.70
2018-09-25T22:02:04.411Z,7.60
2018-09-25T22:04:38.012Z,7.60
2018-09-25T22:07:11.654Z,7.60
2018-09-25T22:09:45.370Z,7.50
2018-09-25T22:12:18.753Z,7.50
2018-09-25T22:14:52.353Z,7.40
2018-09-25T22:17:26.008Z,7.30
2018-09-25T22:19:59.717Z,7.30
2018-09-25T22:22:33.404Z,7.20
2018-09-25T22:25:07.027Z,7.10
2018-09-25T22:27:40.801Z,7.10
2018-09-25T22:30:14.476Z,7.10
2018-09-25T22:32:48.133Z,7.00
2018-09-25T22:35:21.551Z,7.00
2018-09-25T22:37:55.198Z,6.90
2018-09-25T22:40:28.694Z,6.80
2018-09-25T22:43:02.272Z,6.80
2018-09-25T22:45:35.928Z,6.70
2018-09-25T22:48:09.597Z,6.70
2018-09-25T22:50:43.316Z,6.70
2018-09-25T22:53:16.944Z,6.60
2018-09-25T22:55:50.518Z,6.50
2018-09-25T22:58:23.970Z,6.40
2018-09-25T23:00:57.338Z,6.40
2018-09-25T23:03:30.926Z,6.30
2018-09-25T23:06:04.267Z,6.30
2018-09-25T23:08:37.942Z,6.30
2018-09-25T23:11:11.836Z,6.30
2018-09-25T23:13:45.434Z,6.30
2018-09-25T23:16:19.032Z,6.30
2018-09-25T23:18:52.810Z,6.30
2018-09-25T23:21:26.237Z,6.30
2018-09-25T23:23:59.909Z,6.30
2018-09-25T23:26:33.457Z,6.30
2018-09-25T23:29:07.090Z,6.20
2018-09-25T23:31:40.599Z,6.30
2018-09-25T23:34:14.308Z,6.30
2018-09-25T23:36:48.038Z,6.20
2018-09-25T23:39:22.412Z,6.20
2018-09-25T23:41:55.974Z,6.20
2018-09-25T23:44:32.442Z,6.20
2018-09-25T23:47:07.177Z,6.20
2018-09-25T23:49:46.650Z,6.10
2018-09-25T23:54:22.892Z,6.10
2018-09-25T23:57:04.562Z,6.10
2018-09-25T23:59:39.724Z,6.00
